createdAt,value
2023-02-11T10:54:30.882Z,12.95
2023-02-11T10:56:59.838Z,13.07
2023-02-11T10:59:28.292Z,13.35
2023-02-11T11:02:00.535Z,13.35
2023-02-11T11:04:33.731Z,10.07
2023-02-11T11:07:16.802Z,12.80
2023-02-11T11:09:50.844Z,12.77
2023-02-11T11:12:46.391Z,11.75
2023-02-11T11:15:25.659Z,12.27
2023-02-11T11:18:21.482Z,11.38
2023-02-11T11:21:13.499Z,11.63
2023-02-11T11:23:40.466Z,8.63
2023-02-11T11:26:13.046Z,11.27
2023-02-11T11:28:46.714Z,9.95
2023-02-11T11:31:24.184Z,6.88
2023-02-11T11:33:54.254Z,11.45
2023-02-11T11:36:23.817Z,9.65
2023-02-11T11:39:00.510Z,8.13
2023-02-11T11:41:30.743Z,9.70
2023-02-11T11:44:21.279Z,10.38
2023-02-11T11:46:51.176Z,9.20
2023-02-11T11:49:23.462Z,10.30
2023-02-11T11:52:18.598Z,8.82
2023-02-11T11:57:21.732Z,9.30
2023-02-11T11:59:48.664Z,10.07
2023-02-11T12:02:18.286Z,8.07
2023-02-11T12:04:50.825Z,8.85
2023-02-11T12:07:54.526Z,6.30
2023-02-11T12:10:56.634Z,8.60
2023-02-11T12:13:40.866Z,10.32
2023-02-11T12:16:26.066Z,10.30
2023-02-11T12:19:07.792Z,7.43
2023-02-11T12:22:03.156Z,9.52
2023-02-11T12:24:42.116Z,10.20
2023-02-11T12:27:28.109Z,10.57
2023-02-11T12:30:07.961Z,10.23
2023-02-11T12:32:47.202Z,10.30
2023-02-11T12:35:38.538Z,9.73
2023-02-11T12:38:29.799Z,11.13
2023-02-11T12:42:03.640Z,10.48
2023-02-11T12:44:52.075Z,8.80
2023-02-11T12:47:44.707Z,9.48
2023-02-11T12:50:24.782Z,9.07
2023-02-11T12:53:16.015Z,9.70
2023-02-11T12:55:46.979Z,8.60
2023-02-11T12:58:19.924Z,7.55
2023-02-11T13:01:01.817Z,6.30
2023-02-11T13:03:56.915Z,9.07
2023-02-11T13:09:04.814Z,8.25
2023-02-11T13:11:44.503Z,7.68
2023-02-11T13:14:21.983Z,8.35
2023-02-11T13:16:50.786Z,8.48
2023-02-11T13:19:31.602Z,6.72
2023-02-11T13:22:17.451Z,4.93
2023-02-11T13:24:58.234Z,8.80
2023-02-11T13:27:48.379Z,7.88
2023-02-11T13:30:34.667Z,7.22
2023-02-11T13:33:01.547Z,8.35
2023-02-11T13:35:31.292Z,8.00
2023-02-11T13:37:59.829Z,6.93
2023-02-11T13:40:32.305Z,7.72
2023-02-11T13:43:01.269Z,8.77
2023-02-11T13:45:37.515Z,5.28
2023-02-11T13:48:13.591Z,4.38
2023-02-11T13:50:50.933Z,5.25
2023-02-11T13:53:19.032Z,5.43
2023-02-11T13:55:49.819Z,4.28
2023-02-11T13:58:27.489Z,4.65
2023-02-11T14:00:54.730Z,4.50
2023-02-11T14:03:49.406Z,4.60
2023-02-11T14:06:38.398Z,2.60
2023-02-11T14:09:07.852Z,4.05
2023-02-11T14:11:40.615Z,4.32
2023-02-11T14:14:18.660Z,4.65
2023-02-11T14:17:03.409Z,4.40
2023-02-11T14:19:50.615Z,3.88
2023-02-11T14:22:43.521Z,4.53
2023-02-11T14:25:21.474Z,3.67
2023-02-11T14:28:00.685Z,4.47
2023-02-11T14:30:42.873Z,4.05
2023-02-11T14:33:49.316Z,4.65
2023-02-11T14:36:53.600Z,3.35
2023-02-11T14:39:47.286Z,4.38
2023-02-11T14:42:19.910Z,4.00
2023-02-11T14:44:52.501Z,4.75
2023-02-11T14:47:23.921Z,3.90
2023-02-11T14:49:50.851Z,4.15
2023-02-11T14:52:37.365Z,4.30
2023-02-11T14:55:19.389Z,3.42
2023-02-11T14:57:49.411Z,3.78
2023-02-11T15:00:22.049Z,4.60
2023-02-11T15:02:48.911Z,3.30
2023-02-11T15:05:23.619Z,4.65
2023-02-11T15:07:53.639Z,4.30
2023-02-11T15:10:32.625Z,4.05
2023-02-11T15:13:01.152Z,4.45
2023-02-11T15:15:29.220Z,4.65
2023-02-11T15:18:00.868Z,4.28
2023-02-11T15:20:32.029Z,5.10
2023-02-11T15:23:03.011Z,3.55
2023-02-11T15:25:31.785Z,3.75
2023-02-11T15:28:00.573Z,3.75
2023-02-11T15:30:30.708Z,4.10
2023-02-11T15:33:00.553Z,4.35
2023-02-11T15:35:30.284Z,4.85
2023-02-11T15:37:58.733Z,5.28
2023-02-11T15:40:29.432Z,5.70
2023-02-11T15:43:07.642Z,3.83
2023-02-11T15:45:52.983Z,4.97
2023-02-11T15:48:38.524Z,4.43
2023-02-11T15:51:29.845Z,5.47
2023-02-11T15:54:03.462Z,4.25
2023-02-11T15:56:44.757Z,4.40
2023-02-11T15:59:25.746Z,4.57
2023-02-11T16:01:53.736Z,4.03
2023-02-11T16:04:24.409Z,5.10
2023-02-11T16:06:51.578Z,4.88
2023-02-11T16:09:34.569Z,4.53
2023-02-11T16:12:04.489Z,4.30
2023-02-11T16:14:37.096Z,3.88
2023-02-11T16:17:08.777Z,4.90
2023-02-11T16:19:36.513Z,4.93
2023-02-11T16:22:10.634Z,4.57
2023-02-11T16:24:38.793Z,4.28
2023-02-11T16:27:18.368Z,4.60
2023-02-11T16:29:48.969Z,4.75
2023-02-11T16:32:20.966Z,4.45
2023-02-11T16:34:48.057Z,4.55
2023-02-11T16:37:14.988Z,4.10
2023-02-11T16:39:42.020Z,5.07
2023-02-11T16:42:12.758Z,5.15
2023-02-11T16:44:39.397Z,4.57
2023-02-11T16:47:16.801Z,4.57
2023-02-11T16:49:43.635Z,4.57
2023-02-11T16:52:15.330Z,4.85
2023-02-11T16:54:42.861Z,5.65
2023-02-11T16:57:14.735Z,5.38
2023-02-11T16:59:41.646Z,5.30
2023-02-11T17:02:24.180Z,4.97
2023-02-11T17:04:53.617Z,4.88
2023-02-11T17:07:20.360Z,4.80
2023-02-11T17:09:46.928Z,5.47
2023-02-11T17:12:13.672Z,6.22
2023-02-11T17:14:40.655Z,7.22
2023-02-11T17:17:08.105Z,5.80
2023-02-11T17:19:34.771Z,5.75
2023-02-11T17:22:01.446Z,5.72
2023-02-11T17:24:28.253Z,6.65
2023-02-11T17:26:54.982Z,5.63
2023-02-11T17:29:23.606Z,5.75
2023-02-11T17:31:51.984Z,5.65
2023-02-11T17:34:19.844Z,5.28
2023-02-11T17:36:46.945Z,5.57
2023-02-11T17:39:13.637Z,5.82
2023-02-11T17:41:41.191Z,5.50
2023-02-11T17:44:10.906Z,5.40
2023-02-11T17:46:37.564Z,6.20
2023-02-11T17:49:04.513Z,6.25
2023-02-11T17:51:33.766Z,6.57
2023-02-11T17:54:11.955Z,6.47
2023-02-11T17:56:39.309Z,3.97
2023-02-11T17:59:08.322Z,4.53
2023-02-11T18:01:36.550Z,4.90
2023-02-11T18:04:03.559Z,6.38
2023-02-11T18:06:31.880Z,5.60
2023-02-11T18:08:59.825Z,5.55
2023-02-11T18:11:27.875Z,5.97
2023-02-11T18:13:54.735Z,7.53
2023-02-11T18:16:23.422Z,6.93
2023-02-11T18:18:50.595Z,5.78
2023-02-11T18:21:20.266Z,6.50
2023-02-11T18:23:47.251Z,5.60
2023-02-11T18:26:15.769Z,5.70
2023-02-11T18:28:45.623Z,6.13
2023-02-11T18:31:14.022Z,6.93
2023-02-11T18:33:41.878Z,6.07
2023-02-11T18:36:14.191Z,6.60
2023-02-11T18:38:41.885Z,5.90
2023-02-11T18:41:08.592Z,6.60
2023-02-11T18:43:35.753Z,6.45
2023-02-11T18:46:07.069Z,6.85
2023-02-11T18:48:33.740Z,6.70
2023-02-11T18:51:00.646Z,7.00
2023-02-11T18:53:27.400Z,7.35
2023-02-11T18:55:54.902Z,6.68
2023-02-11T18:58:21.823Z,6.20
2023-02-11T19:00:50.165Z,6.50
2023-02-11T19:03:17.362Z,7.28
2023-02-11T19:05:45.954Z,7.05
2023-02-11T19:08:13.449Z,7.32
2023-02-11T19:10:45.099Z,7.70
2023-02-11T19:13:12.260Z,7.97
2023-02-11T19:15:46.231Z,6.90
2023-02-11T19:18:14.491Z,7.45
2023-02-11T19:20:44.544Z,7.32
2023-02-11T19:23:11.360Z,6.97
2023-02-11T19:25:44.381Z,7.55
2023-02-11T19:28:11.072Z,6.80
2023-02-11T19:30:37.999Z,7.18
2023-02-11T19:33:04.694Z,7.05
2023-02-11T19:35:35.570Z,7.10
2023-02-11T19:38:03.644Z,7.25
2023-02-11T19:40:31.069Z,8.02
2023-02-11T19:42:57.836Z,7.88
2023-02-11T19:45:25.039Z,7.55
2023-02-11T19:47:56.039Z,16.40
2023-02-11T19:50:23.415Z,14.98
2023-02-11T19:52:50.198Z,10.10
2023-02-11T19:55:16.949Z,9.18
2023-02-11T19:57:43.721Z,8.45
2023-02-11T20:00:11.479Z,7.97
2023-02-11T20:02:39.491Z,8.27
2023-02-11T20:05:07.028Z,8.68
2023-02-11T20:07:33.631Z,8.38
2023-02-11T20:10:00.272Z,8.63
2023-02-11T20:12:27.029Z,9.60
2023-02-11T20:14:53.810Z,10.73
2023-02-11T20:17:20.461Z,7.38
2023-02-11T20:19:47.078Z,9.27
2023-02-11T20:22:13.665Z,8.43
2023-02-11T20:24:40.333Z,9.73
2023-02-11T20:27:08.418Z,10.23
2023-02-11T20:29:35.149Z,8.68
2023-02-11T20:32:03.240Z,8.77
2023-02-11T20:34:29.985Z,8.38
2023-02-11T20:36:57.064Z,8.55
2023-02-11T20:39:27.576Z,8.95
2023-02-11T20:41:54.772Z,8.70
2023-02-11T20:44:22.322Z,8.77
2023-02-11T20:46:49.548Z,7.95
2023-02-11T20:49:19.277Z,7.78
2023-02-11T20:51:46.573Z,9.10
2023-02-11T20:54:15.808Z,8.13
2023-02-11T20:56:42.587Z,7.90
2023-02-11T20:59:09.767Z,8.35
2023-02-11T21:01:40.745Z,7.75
2023-02-11T21:04:12.186Z,7.90
2023-02-11T21:06:42.566Z,7.80
2023-02-11T21:09:13.079Z,8.68
2023-02-11T21:11:39.925Z,11.07
2023-02-11T21:14:07.185Z,10.52
2023-02-11T21:16:33.983Z,9.68
2023-02-11T21:19:01.157Z,9.73
2023-02-11T21:21:27.832Z,10.43
2023-02-11T21:23:56.018Z,9.50
2023-02-11T21:26:23.123Z,9.52
2023-02-11T21:28:50.061Z,9.30
2023-02-11T21:31:20.837Z,9.77
2023-02-11T21:33:48.491Z,9.82
2023-02-11T21:36:15.312Z,9.63
2023-02-11T21:38:42.362Z,9.25
2023-02-11T21:41:09.256Z,10.45
2023-02-11T21:43:35.832Z,9.93
2023-02-11T21:46:08.619Z,10.55
2023-02-11T21:48:35.302Z,11.75
2023-02-11T21:51:06.427Z,10.73
2023-02-11T21:53:34.067Z,10.50
2023-02-11T21:56:09.686Z,9.85
2023-02-11T21:58:36.914Z,10.52
2023-02-11T22:01:17.645Z,8.95
2023-02-11T22:03:45.807Z,9.35
2023-02-11T22:06:16.195Z,10.02
2023-02-11T22:08:43.132Z,11.38
2023-02-11T22:11:12.265Z,10.88
2023-02-11T22:13:40.069Z,15.60
2023-02-11T22:16:09.765Z,11.43
2023-02-11T22:18:37.203Z,9.70
2023-02-11T22:21:16.201Z,9.70
2023-02-11T22:23:43.099Z,9.90
2023-02-11T22:26:13.264Z,9.40
2023-02-11T22:28:40.913Z,10.10
2023-02-11T22:31:13.244Z,10.32
2023-02-11T22:33:40.437Z,9.68
2023-02-11T22:36:12.032Z,9.30
2023-02-11T22:38:38.699Z,9.18
2023-02-11T22:41:07.912Z,9.57
2023-02-11T22:43:34.967Z,9.40
2023-02-11T22:46:03.653Z,9.32
2023-02-11T22:48:30.300Z,10.25
2023-02-11T22:50:57.139Z,11.77
2023-02-11T22:53:25.511Z,10.35
2023-02-11T22:55:52.630Z,9.93
2023-02-11T22:58:19.442Z,10.15
2023-02-11T23:00:46.044Z,10.68
2023-02-11T23:03:13.352Z,10.70
2023-02-11T23:05:43.262Z,10.00
2023-02-11T23:08:12.046Z,10.27
2023-02-11T23:10:39.776Z,8.88
2023-02-11T23:13:07.740Z,8.13
2023-02-11T23:15:34.555Z,8.30
2023-02-11T23:18:01.233Z,8.38
2023-02-11T23:20:27.961Z,9.07
2023-02-11T23:22:55.008Z,9.18
2023-02-11T23:25:21.623Z,9.52
2023-02-11T23:27:48.225Z,9.80
2023-02-11T23:30:14.995Z,9.88
2023-02-11T23:32:41.625Z,10.25
2023-02-11T23:35:08.499Z,9.55
2023-02-11T23:37:35.149Z,9.70
2023-02-11T23:40:01.868Z,11.20
2023-02-11T23:42:29.224Z,11.75
2023-02-11T23:44:55.862Z,9.35
2023-02-11T23:47:23.513Z,11.25
2023-02-11T23:49:50.241Z,10.93
2023-02-11T23:52:17.653Z,12.10
2023-02-11T23:54:45.538Z,11.60
2023-02-11T23:57:12.276Z,10.93
2023-02-11T23:59:39.059Z,10.10
